Time;durP1;ratioP1;P1;durP2;ratioP2;P2;SDS_P1;SDS_P2;PMS_P1;PMS_P2;Temp;Humidity;BMP_temperature;BMP_pressure;BME280_temperature;BME280_humidity;BME280_pressure;Samples;Min_cycle;Max_cycle;Signal;HPM_P1;HPM_P2
2023/10/31 00:00:13;;;;;;;2.60;1.08;;;10.50;99.90;;;;;;4783530;29;20062;-88
2023/10/31 00:02:39;;;;;;;2.22;0.90;;;10.40;99.90;;;;;;4822653;29;20043;-88
2023/10/31 00:05:05;;;;;;;4.47;1.20;;;10.50;99.90;;;;;;4792973;29;20061;-87
2023/10/31 00:07:30;;;;;;;4.55;1.55;;;10.50;99.90;;;;;;4812483;29;20125;-88
2023/10/31 00:09:56;;;;;;;3.25;1.15;;;10.70;99.90;;;;;;4796581;29;20138;-88
2023/10/31 00:12:22;;;;;;;3.55;1.17;;;10.50;99.90;;;;;;4804742;29;20042;-88
2023/10/31 00:14:50;;;;;;;2.20;0.95;;;10.50;99.90;;;;;;4795411;29;20046;-89
2023/10/31 00:17:16;;;;;;;5.18;1.20;;;10.50;99.90;;;;;;4810432;29;20057;-89
2023/10/31 00:19:42;;;;;;;2.05;0.70;;;10.40;99.90;;;;;;4810108;29;20867;-89
2023/10/31 00:22:08;;;;;;;3.22;1.00;;;10.40;99.90;;;;;;4780188;29;20057;-89
2023/10/31 00:24:36;;;;;;;3.30;1.02;;;10.60;99.90;;;;;;4796634;29;20054;-89
2023/10/31 00:27:02;;;;;;;2.85;1.00;;;10.60;99.90;;;;;;4822991;29;20143;-87
2023/10/31 00:29:28;;;;;;;4.82;1.52;;;10.60;99.90;;;;;;4790194;29;20089;-86
2023/10/31 00:31:54;;;;;;;3.00;1.20;;;10.60;99.90;;;;;;4794557;29;20082;-86
2023/10/31 00:34:20;;;;;;;4.20;1.38;;;10.40;99.90;;;;;;4809610;29;20133;-85
2023/10/31 00:36:46;;;;;;;3.05;1.30;;;10.50;99.90;;;;;;4819648;29;20050;-85
2023/10/31 00:39:11;;;;;;;2.80;1.20;;;10.40;99.90;;;;;;4809673;29;20446;-85
2023/10/31 00:41:39;;;;;;;3.67;1.13;;;10.60;99.90;;;;;;4787538;29;20055;-85
2023/10/31 00:44:05;;;;;;;3.78;1.25;;;10.50;99.90;;;;;;4808282;29;20046;-85
2023/10/31 00:46:31;;;;;;;3.35;1.23;;;10.70;99.90;;;;;;4824200;29;20038;-85
2023/10/31 00:48:59;;;;;;;3.58;1.10;;;10.40;99.90;;;;;;4825724;29;20046;-85
2023/10/31 00:51:25;;;;;;;3.60;1.00;;;10.40;99.90;;;;;;4804719;29;20070;-85
2023/10/31 00:53:51;;;;;;;3.17;1.08;;;10.40;99.90;;;;;;4797150;29;20051;-87
2023/10/31 00:56:17;;;;;;;1.63;1.00;;;10.40;99.90;;;;;;4789265;29;20138;-85
2023/10/31 00:58:45;;;;;;;2.42;0.95;;;10.60;99.90;;;;;;4802758;29;20056;-85
2023/10/31 01:01:11;;;;;;;5.32;1.38;;;10.40;99.90;;;;;;4794085;29;20065;-84
2023/10/31 01:03:37;;;;;;;2.80;0.85;;;10.20;99.90;;;;;;4821113;29;20416;-84
2023/10/31 01:06:03;;;;;;;2.25;1.02;;;10.70;99.90;;;;;;4821761;29;20383;-84
2023/10/31 01:08:29;;;;;;;3.40;1.13;;;10.30;99.90;;;;;;4794249;29;20042;-84
2023/10/31 01:10:55;;;;;;;4.13;1.60;;;10.40;99.90;;;;;;4794356;29;20178;-84
2023/10/31 01:13:21;;;;;;;3.38;1.30;;;10.30;99.90;;;;;;4791515;29;20121;-83
2023/10/31 01:15:47;;;;;;;2.28;1.05;;;10.60;99.90;;;;;;4815791;29;20051;-83
2023/10/31 01:18:13;;;;;;;4.05;1.33;;;10.70;99.90;;;;;;4808674;29;20058;-84
2023/10/31 01:20:41;;;;;;;7.20;1.67;;;10.20;99.90;;;;;;4810818;29;20138;-83
2023/10/31 01:23:07;;;;;;;2.63;1.02;;;10.20;99.90;;;;;;4808455;29;20046;-83
2023/10/31 01:25:33;;;;;;;6.07;1.70;;;10.50;99.90;;;;;;4779014;29;20585;-83
2023/10/31 01:27:58;;;;;;;3.47;1.30;;;10.20;99.90;;;;;;4794433;29;20050;-83
2023/10/31 01:30:24;;;;;;;3.35;1.23;;;10.40;99.90;;;;;;4820018;29;20115;-83
2023/10/31 01:32:50;;;;;;;5.82;1.40;;;10.60;99.90;;;;;;4779074;29;20495;-82
2023/10/31 01:35:16;;;;;;;2.75;1.10;;;10.50;99.90;;;;;;4823578;29;20062;-82
2023/10/31 01:37:41;;;;;;;4.25;1.08;;;10.10;99.90;;;;;;4808208;29;20364;-83
2023/10/31 01:40:08;;;;;;;3.28;0.95;;;10.40;99.90;;;;;;4820442;29;20051;-85
2023/10/31 01:42:34;;;;;;;5.25;1.05;;;10.00;99.90;;;;;;4804891;29;20062;-86
2023/10/31 01:44:59;;;;;;;2.95;0.93;;;10.40;99.90;;;;;;4808623;29;20054;-86
2023/10/31 01:47:25;;;;;;;1.92;0.80;;;10.20;99.90;;;;;;4826044;29;20069;-86
2023/10/31 01:49:52;;;;;;;6.15;0.93;;;10.30;99.90;;;;;;4823443;29;20050;-86
2023/10/31 01:52:17;;;;;;;3.28;0.80;;;9.90;99.90;;;;;;4806279;29;20103;-86
2023/10/31 01:54:44;;;;;;;4.38;0.80;;;10.00;99.90;;;;;;4782577;29;20384;-85
2023/10/31 01:57:14;;;;;;;3.05;0.93;;;10.00;99.90;;;;;;4795724;29;20051;-85
2023/10/31 01:59:40;;;;;;;3.92;1.02;;;10.40;99.90;;;;;;4793067;29;20077;-86
2023/10/31 02:02:06;;;;;;;2.97;1.00;;;10.30;99.90;;;;;;4805233;29;20078;-86
2023/10/31 02:04:31;;;;;;;4.25;1.20;;;9.90;99.90;;;;;;4835585;29;20064;-87
2023/10/31 02:06:57;;;;;;;5.55;1.40;;;9.90;99.90;;;;;;4784595;29;20047;-86
2023/10/31 02:09:25;;;;;;;4.40;0.80;;;10.10;99.90;;;;;;4791669;29;21765;-87
2023/10/31 02:11:51;;;;;;;5.18;1.15;;;9.80;99.90;;;;;;4819967;29;20057;-87
2023/10/31 02:14:18;;;;;;;3.50;0.90;;;10.20;99.90;;;;;;4792262;29;20058;-86
2023/10/31 02:16:44;;;;;;;;;;;9.80;99.90;;;;;;4793640;29;20065;-86
2023/10/31 02:19:12;;;;;;;4.35;0.70;;;9.80;99.90;;;;;;4792802;29;19920;-86
2023/10/31 02:21:39;;;;;;;4.95;0.95;;;9.90;99.90;;;;;;4792787;29;20090;-86
2023/10/31 02:24:06;;;;;;;6.35;1.05;;;10.20;99.90;;;;;;4802494;29;20162;-86
2023/10/31 02:26:32;;;;;;;;;;;9.80;99.90;;;;;;4798768;29;20082;-85
2023/10/31 02:28:59;;;;;;;2.40;0.80;;;9.80;99.90;;;;;;4807027;29;19921;-86
2023/10/31 02:31:25;;;;;;;4.47;1.00;;;9.70;99.90;;;;;;4792839;29;20084;-86
2023/10/31 02:33:51;;;;;;;4.22;0.98;;;9.80;99.90;;;;;;4807409;29;20090;-86
2023/10/31 02:36:17;;;;;;;6.35;1.20;;;9.80;99.90;;;;;;4783907;29;20062;-86
2023/10/31 02:38:42;;;;;;;3.65;1.02;;;9.80;99.90;;;;;;4771079;29;20062;-86
2023/10/31 02:41:08;;;;;;;3.88;1.38;;;9.90;99.90;;;;;;4792520;29;20064;-86
2023/10/31 02:43:34;;;;;;;5.53;2.30;;;10.00;99.90;;;;;;4823168;29;20085;-86
2023/10/31 02:46:00;;;;;;;6.43;2.92;;;9.90;99.90;;;;;;4791897;29;20129;-86
2023/10/31 02:48:26;;;;;;;8.75;3.50;;;9.80;99.90;;;;;;4822662;29;20042;-85
2023/10/31 02:50:52;;;;;;;;;;;10.40;99.90;;;;;;4799636;29;20511;-85
2023/10/31 02:53:21;;;;;;;7.82;3.95;;;10.20;99.90;;;;;;4835069;29;19927;-85
2023/10/31 02:55:46;;;;;;;9.48;5.70;;;10.00;99.90;;;;;;4832646;29;20050;-85
2023/10/31 02:58:12;;;;;;;9.27;3.35;;;9.90;99.90;;;;;;4791091;29;20051;-85
2023/10/31 03:00:38;;;;;;;4.65;2.90;;;10.30;99.90;;;;;;4813372;29;21603;-87
2023/10/31 03:03:07;;;;;;;5.70;2.60;;;10.00;99.90;;;;;;4791510;29;20118;-84
2023/10/31 03:05:33;;;;;;;5.10;1.90;;;10.40;99.90;;;;;;4805597;29;20491;-85
2023/10/31 03:07:59;;;;;;;4.05;1.65;;;10.40;99.90;;;;;;4776445;29;20183;-84
2023/10/31 03:10:24;;;;;;;6.32;2.00;;;10.40;99.90;;;;;;4806570;29;20129;-84
2023/10/31 03:12:50;;;;;;;5.15;2.03;;;10.30;99.90;;;;;;4806392;29;20050;-84
2023/10/31 03:15:16;;;;;;;3.78;2.00;;;9.90;99.90;;;;;;4776583;29;20509;-84
2023/10/31 03:17:42;;;;;;;3.65;1.90;;;10.40;99.90;;;;;;4788911;29;20073;-84
2023/10/31 03:20:08;;;;;;;6.13;2.13;;;9.90;99.90;;;;;;4761710;29;20406;-85
2023/10/31 03:22:34;;;;;;;5.82;2.60;;;10.40;99.90;;;;;;4819404;29;20050;-85
2023/10/31 03:25:01;;;;;;;6.43;2.40;;;10.40;99.90;;;;;;4807465;29;20042;-84
2023/10/31 03:27:26;;;;;;;7.10;2.45;;;9.90;99.90;;;;;;4780034;29;20043;-84
2023/10/31 03:29:52;;;;;;;5.93;2.30;;;9.90;99.90;;;;;;4791740;29;20114;-84
2023/10/31 03:32:18;;;;;;;4.32;2.35;;;10.30;99.90;;;;;;4790520;29;20145;-84
2023/10/31 03:34:43;;;;;;;5.40;2.70;;;9.90;99.90;;;;;;4791370;29;20380;-85
2023/10/31 03:37:09;;;;;;;4.82;2.80;;;9.90;99.90;;;;;;4791001;29;20050;-84
2023/10/31 03:39:35;;;;;;;5.70;2.67;;;10.20;99.90;;;;;;4807361;29;20085;-84
2023/10/31 03:42:00;;;;;;;4.82;2.60;;;10.40;99.90;;;;;;4776588;29;20055;-84
2023/10/31 03:44:26;;;;;;;6.32;2.90;;;10.00;99.90;;;;;;4804948;29;20057;-85
2023/10/31 03:46:52;;;;;;;4.90;2.40;;;10.00;99.90;;;;;;4794812;29;20407;-84
2023/10/31 03:49:17;;;;;;;3.97;2.50;;;10.00;99.90;;;;;;4776173;29;20540;-85
2023/10/31 03:51:43;;;;;;;7.10;2.63;;;10.10;99.90;;;;;;4793757;29;20058;-85
2023/10/31 03:54:09;;;;;;;5.93;2.45;;;10.30;99.90;;;;;;4793889;29;20065;-85
2023/10/31 03:56:42;;;;;;;4.45;2.30;;;10.40;99.90;;;;;;4782093;29;20058;-85
2023/10/31 03:59:08;;;;;;;5.30;2.25;;;10.00;99.90;;;;;;4789131;29;20058;-85
2023/10/31 04:01:34;;;;;;;4.85;2.60;;;10.20;99.90;;;;;;4795343;29;20061;-85
2023/10/31 04:04:00;;;;;;;4.88;2.60;;;10.10;99.90;;;;;;4796098;29;20053;-86
2023/10/31 04:06:25;;;;;;;4.53;2.28;;;10.20;99.90;;;;;;4822579;29;20495;-85
2023/10/31 04:08:52;;;;;;;5.50;2.50;;;10.40;99.90;;;;;;4787090;29;20069;-83
2023/10/31 04:11:17;;;;;;;;;;;10.20;99.90;;;;;;4780007;29;20054;-83
2023/10/31 04:13:43;;;;;;;6.38;2.20;;;10.20;99.90;;;;;;4803816;29;19925;-82
2023/10/31 04:16:09;;;;;;;4.18;1.80;;;10.20;99.90;;;;;;4793970;29;20518;-82
2023/10/31 04:18:36;;;;;;;3.33;2.03;;;10.20;99.90;;;;;;4808950;29;20050;-83
2023/10/31 04:21:01;;;;;;;6.47;2.63;;;10.50;99.90;;;;;;4833141;29;20057;-84
2023/10/31 04:23:27;;;;;;;4.18;2.30;;;10.70;99.90;;;;;;4763810;29;20046;-82
2023/10/31 04:25:53;;;;;;;3.78;2.33;;;10.20;99.90;;;;;;4792370;29;20074;-85
2023/10/31 04:28:19;;;;;;;6.13;2.25;;;10.50;99.90;;;;;;4822976;29;20050;-85
2023/10/31 04:30:44;;;;;;;4.68;2.17;;;10.60;99.90;;;;;;4779366;29;20093;-86
2023/10/31 04:33:11;;;;;;;6.05;1.95;;;10.60;99.90;;;;;;4783505;29;20490;-87
2023/10/31 04:35:36;;;;;;;4.32;1.80;;;10.60;99.90;;;;;;4793787;29;20511;-89
2023/10/31 04:38:02;;;;;;;6.70;2.15;;;10.70;99.90;;;;;;4785739;29;20101;-87
2023/10/31 04:40:28;;;;;;;5.68;2.40;;;10.20;99.90;;;;;;4777884;29;20115;-88
2023/10/31 04:42:54;;;;;;;5.00;2.42;;;10.10;99.90;;;;;;4779162;29;20414;-88
2023/10/31 04:45:20;;;;;;;;;;;10.60;99.90;;;;;;4798596;29;20125;-86
2023/10/31 04:47:48;;;;;;;5.22;2.30;;;10.10;99.90;;;;;;4838443;29;20441;-87
2023/10/31 04:50:15;;;;;;;4.88;2.20;;;10.60;99.90;;;;;;4793526;29;20050;-87
2023/10/31 04:52:40;;;;;;;;;;;10.60;99.90;;;;;;4778589;29;20558;-87
2023/10/31 04:55:06;;;;;;;3.63;1.83;;;10.20;99.90;;;;;;4793776;29;19960;-86
2023/10/31 04:57:32;;;;;;;4.10;1.80;;;10.40;99.90;;;;;;4803116;29;20050;-87
2023/10/31 04:59:59;;;;;;;3.90;1.60;;;10.10;99.90;;;;;;4794136;29;20130;-87
2023/10/31 05:02:24;;;;;;;3.10;1.38;;;10.20;99.90;;;;;;4805632;29;20472;-87
2023/10/31 05:04:50;;;;;;;4.22;1.45;;;10.70;99.90;;;;;;4793127;29;20074;-86
2023/10/31 05:07:19;;;;;;;3.75;1.42;;;10.70;99.90;;;;;;4764062;29;20050;-87
2023/10/31 05:09:45;;;;;;;1.65;0.90;;;10.40;99.90;;;;;;4809100;29;20118;-86
2023/10/31 05:12:11;;;;;;;1.85;0.90;;;10.50;99.90;;;;;;4806381;29;20523;-88
2023/10/31 05:14:38;;;;;;;2.95;1.10;;;10.20;99.90;;;;;;4819652;29;20054;-87
2023/10/31 05:17:04;;;;;;;1.58;0.80;;;10.80;99.90;;;;;;4793960;29;20062;-87
2023/10/31 05:19:30;;;;;;;2.38;0.98;;;10.20;99.90;;;;;;4792718;29;20046;-87
2023/10/31 05:21:55;;;;;;;2.20;0.63;;;10.70;99.90;;;;;;4777957;29;20050;-87
2023/10/31 05:24:21;;;;;;;2.85;0.77;;;10.50;99.90;;;;;;4807879;29;20098;-87
2023/10/31 05:26:47;;;;;;;1.75;0.77;;;10.70;99.90;;;;;;4791150;29;20097;-88
2023/10/31 05:29:13;;;;;;;1.85;0.63;;;10.70;99.90;;;;;;4805740;29;20082;-87
2023/10/31 05:31:38;;;;;;;1.70;0.65;;;10.30;99.90;;;;;;4774967;29;20114;-88
2023/10/31 05:34:04;;;;;;;1.90;0.60;;;10.40;99.90;;;;;;4776601;29;20172;-88
2023/10/31 05:36:30;;;;;;;1.80;0.82;;;10.20;99.90;;;;;;4790644;29;20054;-81
2023/10/31 05:38:56;;;;;;;1.65;0.40;;;10.10;99.90;;;;;;4798819;29;20529;-81
2023/10/31 05:41:22;;;;;;;1.65;0.55;;;10.00;99.90;;;;;;4806144;29;20058;-87
2023/10/31 05:43:47;;;;;;;2.53;0.70;;;10.50;99.90;;;;;;4778018;29;20521;-87
2023/10/31 05:46:13;;;;;;;2.17;0.38;;;10.10;99.90;;;;;;4809223;29;20061;-87
2023/10/31 05:48:46;;;;;;;1.88;0.60;;;10.00;99.90;;;;;;4778373;29;20053;-89
2023/10/31 05:51:16;;;;;;;3.40;0.68;;;10.60;99.90;;;;;;4792497;29;20515;-88
2023/10/31 05:53:44;;;;;;;4.13;0.68;;;10.00;99.90;;;;;;4793461;29;20058;-87
2023/10/31 05:56:11;;;;;;;2.05;0.43;;;10.60;99.90;;;;;;4841706;29;20506;-87
2023/10/31 05:58:38;;;;;;;0.88;0.40;;;10.60;99.90;;;;;;4819003;29;20107;-87
2023/10/31 06:01:04;;;;;;;;;;;10.70;99.90;;;;;;4838194;29;20422;-87
2023/10/31 06:03:30;;;;;;;1.23;0.60;;;10.60;99.90;;;;;;4802447;29;20258;-84
2023/10/31 06:05:55;;;;;;;1.88;0.68;;;10.70;99.90;;;;;;4800041;29;20137;-84
2023/10/31 06:08:21;;;;;;;2.17;0.50;;;10.10;99.90;;;;;;4786959;29;20078;-84
2023/10/31 06:10:47;;;;;;;1.13;0.63;;;10.10;99.90;;;;;;4789566;29;20046;-85
2023/10/31 06:13:12;;;;;;;1.15;0.65;;;10.50;99.90;;;;;;4800526;29;20177;-84
2023/10/31 06:15:38;;;;;;;2.05;1.08;;;10.20;99.90;;;;;;4797498;29;20499;-85
2023/10/31 06:18:04;;;;;;;1.48;0.70;;;10.70;99.90;;;;;;4803865;29;20127;-90
2023/10/31 06:20:31;;;;;;;0.98;0.63;;;10.60;99.90;;;;;;4799998;29;20063;-85
2023/10/31 06:22:56;;;;;;;;;;;10.50;99.90;;;;;;4794857;29;20503;-84
2023/10/31 06:25:22;;;;;;;3.58;0.80;;;10.10;99.90;;;;;;4826614;29;19921;-83
2023/10/31 06:27:48;;;;;;;1.80;0.98;;;10.20;99.90;;;;;;4816045;29;20138;-81
2023/10/31 06:30:13;;;;;;;2.45;0.70;;;10.60;99.90;;;;;;4783820;29;20083;-83
2023/10/31 06:32:42;;;;;;;1.77;0.80;;;10.60;99.90;;;;;;4780377;29;20080;-83
2023/10/31 06:35:08;;;;;;;1.40;0.85;;;10.30;99.90;;;;;;4781628;29;20097;-84
2023/10/31 06:37:35;;;;;;;2.42;0.80;;;10.70;99.90;;;;;;4795841;29;20060;-84
2023/10/31 06:40:02;;;;;;;1.92;1.00;;;10.70;99.90;;;;;;4779202;29;20061;-87
2023/10/31 06:42:28;;;;;;;1.17;1.02;;;10.30;99.90;;;;;;4786349;29;20088;-84
2023/10/31 06:44:53;;;;;;;2.15;1.02;;;10.50;99.90;;;;;;4787284;29;20046;-89
2023/10/31 06:47:19;;;;;;;1.45;0.90;;;10.50;99.90;;;;;;4799146;29;20059;-84
2023/10/31 06:49:45;;;;;;;2.70;1.10;;;10.80;99.90;;;;;;4798705;29;20096;-88
2023/10/31 06:52:10;;;;;;;2.67;1.08;;;10.50;99.90;;;;;;4772194;29;20082;-91
2023/10/31 06:54:36;;;;;;;4.20;1.20;;;10.80;99.90;;;;;;4771864;29;20058;-90
2023/10/31 06:57:02;;;;;;;2.78;1.15;;;10.90;99.90;;;;;;4803118;29;20062;-90
2023/10/31 06:59:29;;;;;;;2.95;1.10;;;10.60;99.90;;;;;;4800924;29;20185;-89
2023/10/31 07:01:55;;;;;;;2.30;1.23;;;10.40;99.90;;;;;;4781126;29;20059;-79
2023/10/31 07:04:21;;;;;;;2.25;1.45;;;10.90;99.90;;;;;;4808844;29;20046;-80
2023/10/31 07:06:46;;;;;;;2.50;1.33;;;10.60;99.90;;;;;;4827461;29;20107;-86
2023/10/31 07:09:12;;;;;;;4.45;1.48;;;10.60;99.90;;;;;;4833847;29;20050;-84
2023/10/31 07:11:38;;;;;;;2.78;1.40;;;10.40;99.90;;;;;;4795998;29;20061;-78
2023/10/31 07:14:03;;;;;;;1.85;1.08;;;10.60;99.90;;;;;;4810882;29;20053;-88
2023/10/31 07:16:30;;;;;;;2.28;1.15;;;10.30;99.90;;;;;;4799868;29;20100;-83
2023/10/31 07:18:55;;;;;;;2.70;1.48;;;10.40;99.90;;;;;;4829555;29;20058;-85
2023/10/31 07:21:21;;;;;;;3.55;1.40;;;10.30;99.90;;;;;;4788104;29;20058;-87
2023/10/31 07:23:47;;;;;;;3.13;1.40;;;10.90;99.90;;;;;;4808724;29;20246;-87
2023/10/31 07:26:16;;;;;;;4.07;1.50;;;10.80;99.90;;;;;;4810818;29;20051;-88
2023/10/31 07:28:42;;;;;;;2.63;1.40;;;10.90;99.90;;;;;;4826801;29;20085;-88
2023/10/31 07:31:07;;;;;;;3.55;1.48;;;10.40;99.90;;;;;;4822580;29;20070;-87
2023/10/31 07:33:33;;;;;;;3.15;1.30;;;10.90;99.90;;;;;;4822416;29;20099;-87
2023/10/31 07:35:59;;;;;;;3.13;1.60;;;10.40;99.90;;;;;;4803259;29;20055;-88
2023/10/31 07:38:24;;;;;;;2.85;1.40;;;11.00;99.90;;;;;;4803956;29;20062;-87
2023/10/31 07:40:50;;;;;;;4.28;1.65;;;10.40;99.90;;;;;;4803361;29;20086;-88
2023/10/31 07:43:16;;;;;;;4.18;1.35;;;10.80;99.90;;;;;;4794236;29;20123;-88
2023/10/31 07:45:42;;;;;;;5.30;1.33;;;10.60;99.90;;;;;;4769222;29;20893;-89
2023/10/31 07:48:08;;;;;;;4.63;1.70;;;11.00;99.90;;;;;;4786870;29;20205;-88
2023/10/31 07:50:34;;;;;;;4.05;1.10;;;10.90;99.90;;;;;;4785185;29;20146;-89
2023/10/31 07:53:00;;;;;;;1.83;0.90;;;11.10;99.90;;;;;;4818094;29;20265;-88
2023/10/31 07:55:26;;;;;;;3.55;0.98;;;11.10;99.90;;;;;;4813206;29;20050;-88
2023/10/31 07:57:51;;;;;;;4.25;1.10;;;10.60;99.90;;;;;;4791957;29;20052;-91
2023/10/31 08:00:17;;;;;;;5.32;1.10;;;11.10;99.90;;;;;;4806936;29;20507;-87
2023/10/31 08:02:43;;;;;;;4.43;1.08;;;10.80;99.90;;;;;;4788817;29;20515;-87
2023/10/31 08:05:10;;;;;;;2.70;0.88;;;11.10;99.90;;;;;;4792164;29;20050;-90
2023/10/31 08:07:36;;;;;;;2.47;0.90;;;11.20;99.90;;;;;;4806830;29;20057;-91
2023/10/31 08:10:03;;;;;;;3.47;0.93;;;11.00;99.90;;;;;;4806679;29;20050;-89
2023/10/31 08:12:29;;;;;;;2.97;0.60;;;11.30;99.90;;;;;;4792414;29;20065;-87
2023/10/31 08:14:55;;;;;;;4.55;0.80;;;11.40;99.90;;;;;;4792196;29;20050;-88
2023/10/31 08:17:21;;;;;;;3.13;0.70;;;11.20;99.90;;;;;;4784401;29;20133;-88
2023/10/31 08:19:47;;;;;;;3.25;0.68;;;11.00;99.90;;;;;;4802055;29;20128;-89
2023/10/31 08:22:13;;;;;;;;;;;11.50;99.90;;;;;;4822316;29;20065;-88
2023/10/31 08:24:39;;;;;;;2.72;0.60;;;11.10;99.90;;;;;;4792150;29;20007;-89
2023/10/31 08:27:05;;;;;;;2.15;0.65;;;11.30;99.90;;;;;;4794089;29;20054;-88
2023/10/31 08:29:31;;;;;;;3.80;0.57;;;11.30;99.90;;;;;;4787222;29;20085;-88
2023/10/31 08:31:57;;;;;;;;;;;11.20;99.90;;;;;;4777860;29;20054;-88
2023/10/31 08:34:23;;;;;;;2.13;0.60;;;11.50;99.90;;;;;;4813591;29;20302;-88
2023/10/31 08:36:49;;;;;;;1.40;0.60;;;11.00;99.90;;;;;;4795198;29;20054;-89
2023/10/31 08:39:14;;;;;;;6.50;0.82;;;11.20;99.90;;;;;;4792361;29;20063;-89
2023/10/31 08:42:06;;;;;;;3.60;0.80;;;11.70;99.90;;;;;;4799592;29;20146;-89
2023/10/31 08:44:33;;;;;;;5.07;0.80;;;11.60;99.90;;;;;;4779529;29;20050;-89
2023/10/31 08:46:59;;;;;;;4.00;1.10;;;11.30;99.90;;;;;;4780490;29;20047;-89
2023/10/31 08:49:25;;;;;;;7.30;1.70;;;11.50;99.90;;;;;;4795582;29;20057;-88
2023/10/31 08:51:51;;;;;;;4.40;0.90;;;11.30;99.90;;;;;;4794889;29;20419;-88
2023/10/31 08:54:16;;;;;;;10.02;1.63;;;11.40;99.90;;;;;;4777851;29;20059;-88
2023/10/31 08:56:42;;;;;;;11.02;1.52;;;11.40;99.90;;;;;;4792311;29;20515;-89
2023/10/31 08:59:07;;;;;;;7.80;1.33;;;11.90;99.90;;;;;;4789693;29;20160;-89
2023/10/31 09:01:33;;;;;;;7.70;1.30;;;11.80;99.90;;;;;;4798180;29;20047;-92
2023/10/31 09:03:59;;;;;;;7.60;1.05;;;11.70;99.90;;;;;;4809918;29;20155;-89
2023/10/31 09:06:25;;;;;;;5.95;0.88;;;11.30;99.90;;;;;;4762940;29;20043;-90
2023/10/31 09:08:51;;;;;;;3.10;0.80;;;11.20;99.90;;;;;;4816819;29;20057;-89
2023/10/31 09:11:16;;;;;;;7.30;1.10;;;11.70;99.90;;;;;;4777502;29;20055;-88
2023/10/31 09:13:42;;;;;;;4.53;0.60;;;11.00;99.90;;;;;;4799687;29;20065;-88
2023/10/31 09:16:08;;;;;;;4.13;0.75;;;11.10;99.90;;;;;;4809940;29;20447;-88
2023/10/31 09:18:34;;;;;;;5.38;0.73;;;11.40;99.90;;;;;;4794769;29;20054;-88
2023/10/31 09:21:00;;;;;;;5.43;0.85;;;11.10;99.90;;;;;;4809348;29;20507;-91
2023/10/31 09:23:26;;;;;;;6.85;1.25;;;11.40;99.90;;;;;;4809477;29;20107;-87
2023/10/31 09:25:52;;;;;;;5.03;0.70;;;10.90;99.90;;;;;;4788214;29;20045;-89
2023/10/31 09:28:18;;;;;;;2.55;0.50;;;11.50;99.90;;;;;;4815058;29;20043;-88
2023/10/31 09:30:43;;;;;;;3.15;0.50;;;10.80;99.90;;;;;;4808300;29;20133;-88
2023/10/31 09:33:09;;;;;;;5.03;0.77;;;10.80;99.90;;;;;;4806269;29;20138;-88
2023/10/31 09:35:35;;;;;;;5.60;0.82;;;11.20;99.90;;;;;;4818755;29;20053;-89
2023/10/31 09:38:00;;;;;;;3.65;0.50;;;11.10;99.90;;;;;;4808769;29;20058;-89
2023/10/31 09:40:26;;;;;;;4.07;0.73;;;10.60;99.90;;;;;;4809309;29;20061;-89
2023/10/31 09:42:52;;;;;;;2.22;0.35;;;11.20;99.90;;;;;;4794193;29;20049;-89
2023/10/31 09:45:18;;;;;;;4.20;0.50;;;10.60;99.90;;;;;;4793924;29;20487;-88
2023/10/31 09:47:44;;;;;;;3.47;0.85;;;10.90;99.90;;;;;;4795881;29;20047;-87
2023/10/31 09:50:11;;;;;;;3.90;0.63;;;11.00;99.90;;;;;;4799289;29;20047;-88
2023/10/31 09:52:37;;;;;;;3.13;0.57;;;11.00;99.90;;;;;;4806539;29;20384;-88
2023/10/31 09:55:05;;;;;;;5.95;0.55;;;10.80;99.90;;;;;;4824038;29;20046;-89
2023/10/31 09:57:30;;;;;;;3.35;0.60;;;10.70;99.90;;;;;;4793618;29;20150;-88
2023/10/31 09:59:56;;;;;;;4.50;0.52;;;11.00;99.90;;;;;;4808974;29;20104;-88
2023/10/31 10:02:22;;;;;;;1.88;0.50;;;11.30;99.90;;;;;;4781469;29;20058;-88
2023/10/31 10:04:48;;;;;;;2.80;0.52;;;11.20;99.90;;;;;;4780565;29;20088;-88
2023/10/31 10:07:19;;;;;;;3.88;0.50;;;11.00;99.90;;;;;;4808714;29;20103;-88
2023/10/31 10:09:48;;;;;;;2.47;0.73;;;11.10;99.90;;;;;;4820465;29;20137;-87
2023/10/31 10:12:15;;;;;;;4.85;1.17;;;11.20;99.90;;;;;;4800252;29;20058;-88
2023/10/31 10:14:41;;;;;;;3.22;0.45;;;11.20;99.90;;;;;;4809274;29;20145;-87
2023/10/31 10:17:24;;;;;;;4.63;0.82;;;11.40;99.90;;;;;;4778852;29;20137;-87
2023/10/31 10:20:10;;;;;;;2.15;0.40;;;10.80;99.90;;;;;;4808693;29;20054;-87
2023/10/31 10:22:42;;;;;;;4.10;0.53;;;11.20;99.90;;;;;;4797507;29;20126;-87
2023/10/31 10:25:11;;;;;;;4.18;0.70;;;11.00;99.90;;;;;;4792595;29;20137;-87
2023/10/31 10:27:37;;;;;;;3.47;0.50;;;11.00;99.90;;;;;;4794019;29;20100;-87
2023/10/31 10:30:07;;;;;;;;;;;11.20;99.90;;;;;;4820937;29;20077;-87
2023/10/31 10:32:33;;;;;;;2.35;0.70;;;11.60;99.90;;;;;;4806595;29;19984;-87
2023/10/31 10:35:00;;;;;;;1.90;0.50;;;11.60;99.90;;;;;;4800694;29;20073;-88
2023/10/31 10:37:30;;;;;;;4.70;0.77;;;11.80;99.90;;;;;;4808641;29;20050;-87
2023/10/31 10:40:00;;;;;;;2.55;0.60;;;11.40;99.90;;;;;;4805110;29;20065;-87
2023/10/31 10:42:32;;;;;;;2.05;0.50;;;11.30;99.90;;;;;;4775026;29;20054;-87
2023/10/31 10:45:02;;;;;;;2.35;0.68;;;11.40;99.90;;;;;;4783664;29;20407;-87
2023/10/31 10:47:29;;;;;;;6.63;1.10;;;11.60;99.90;;;;;;4820193;29;20137;-87
2023/10/31 10:49:58;;;;;;;4.07;0.75;;;11.50;99.90;;;;;;4782793;29;20043;-87
2023/10/31 10:52:32;;;;;;;1.55;0.50;;;11.20;99.90;;;;;;4804863;29;20051;-87
2023/10/31 10:55:08;;;;;;;2.92;0.45;;;11.30;99.90;;;;;;4809688;29;20452;-86
2023/10/31 10:57:39;;;;;;;2.83;0.57;;;11.20;99.90;;;;;;4802724;29;20099;-86
2023/10/31 11:00:08;;;;;;;3.05;0.50;;;11.40;99.90;;;;;;4838089;29;20054;-87
2023/10/31 11:02:36;;;;;;;3.30;0.45;;;11.20;99.90;;;;;;4822786;29;20081;-86
2023/10/31 11:05:06;;;;;;;2.30;0.43;;;11.10;99.90;;;;;;4808144;29;20080;-86
2023/10/31 11:07:33;;;;;;;2.47;0.50;;;11.50;99.90;;;;;;4807819;29;20115;-86
2023/10/31 11:10:02;;;;;;;5.05;0.80;;;11.70;99.90;;;;;;4782821;29;20046;-87
2023/10/31 11:12:29;;;;;;;4.90;0.55;;;11.70;99.90;;;;;;4804770;29;20103;-86
2023/10/31 11:14:57;;;;;;;3.20;0.60;;;11.80;99.90;;;;;;4791847;29;20098;-86
2023/10/31 11:17:35;;;;;;;2.33;0.43;;;12.30;99.90;;;;;;4797750;29;20070;-86
2023/10/31 11:20:02;;;;;;;5.70;0.73;;;12.40;99.90;;;;;;4778786;29;20149;-87
2023/10/31 11:22:43;;;;;;;9.75;1.58;;;12.10;99.90;;;;;;4822877;29;20059;-86
2023/10/31 11:25:10;;;;;;;4.47;0.60;;;12.20;99.90;;;;;;4791418;29;20133;-86
2023/10/31 11:27:36;;;;;;;2.75;0.60;;;12.10;99.90;;;;;;4808297;29;20058;-86
2023/10/31 11:30:08;;;;;;;4.53;0.85;;;11.90;99.90;;;;;;4816977;29;20054;-86
2023/10/31 11:32:34;;;;;;;4.03;0.60;;;11.90;99.90;;;;;;4825353;29;20084;-85
2023/10/31 11:35:01;;;;;;;3.30;0.73;;;11.80;99.90;;;;;;4822730;29;20137;-86
2023/10/31 11:37:34;;;;;;;2.22;0.60;;;11.80;99.90;;;;;;4819634;29;20059;-85
2023/10/31 11:40:22;;;;;;;2.63;0.65;;;12.10;99.90;;;;;;4781881;29;20059;-85
2023/10/31 11:42:54;;;;;;;2.50;0.63;;;12.30;99.90;;;;;;4774256;29;20054;-85
2023/10/31 11:45:27;;;;;;;4.68;0.80;;;12.50;99.90;;;;;;4760304;29;20050;-86
2023/10/31 11:47:52;;;;;;;3.70;0.73;;;12.40;99.90;;;;;;4776849;29;20058;-85
2023/10/31 11:50:18;;;;;;;4.57;0.90;;;12.40;99.90;;;;;;4774437;29;20055;-85
2023/10/31 11:52:44;;;;;;;;;;;12.30;99.90;;;;;;4789297;29;20453;-85
2023/10/31 11:55:11;;;;;;;3.83;0.80;;;12.40;99.90;;;;;;4762755;30;20012;-84
2023/10/31 11:57:38;;;;;;;3.10;0.77;;;12.20;99.90;;;;;;4774193;29;20168;-84
2023/10/31 12:00:04;;;;;;;3.28;0.73;;;12.00;99.90;;;;;;4789687;29;20593;-85
2023/10/31 12:02:30;;;;;;;3.83;0.90;;;12.00;99.90;;;;;;4792383;29;20166;-85
2023/10/31 12:05:13;;;;;;;4.68;1.17;;;11.90;99.90;;;;;;4777987;29;20145;-85
2023/10/31 12:07:45;;;;;;;7.25;1.33;;;11.80;99.90;;;;;;4792352;29;20093;-85
2023/10/31 12:10:12;;;;;;;3.47;0.80;;;11.90;99.90;;;;;;4774838;30;20051;-85
2023/10/31 12:12:38;;;;;;;4.30;0.73;;;11.90;99.90;;;;;;4787005;29;20093;-85
2023/10/31 12:15:07;;;;;;;6.25;0.95;;;12.00;99.90;;;;;;4780386;29;20095;-84
2023/10/31 12:17:34;;;;;;;4.63;1.00;;;11.90;99.90;;;;;;4777431;29;20122;-85
2023/10/31 12:20:07;;;;;;;2.85;0.73;;;11.90;99.90;;;;;;4777220;29;20053;-84
2023/10/31 12:22:34;;;;;;;3.22;0.60;;;11.90;99.90;;;;;;4762696;29;20070;-84
2023/10/31 12:25:00;;;;;;;;;;;11.90;99.90;;;;;;4777484;29;20111;-84
2023/10/31 12:27:26;;;;;;;4.70;0.85;;;11.80;99.90;;;;;;4792488;29;19985;-84
2023/10/31 12:30:01;;;;;;;5.22;0.88;;;11.80;99.90;;;;;;4762631;29;20519;-84
2023/10/31 12:32:27;;;;;;;2.67;0.63;;;11.80;99.90;;;;;;4774011;30;20222;-84
2023/10/31 12:34:53;;;;;;;2.30;0.60;;;11.80;99.90;;;;;;4784008;29;20111;-84
2023/10/31 12:37:18;;;;;;;3.35;0.60;;;11.70;99.90;;;;;;4761881;29;20496;-84
2023/10/31 12:39:49;;;;;;;4.55;0.82;;;11.70;99.90;;;;;;4785262;29;20058;-84
2023/10/31 12:42:15;;;;;;;4.20;1.05;;;11.60;99.90;;;;;;4819018;29;20168;-84
2023/10/31 12:44:41;;;;;;;7.38;1.05;;;11.40;99.90;;;;;;4794882;29;20121;-84
2023/10/31 12:47:10;;;;;;;4.13;0.75;;;11.30;99.90;;;;;;4792173;29;20133;-84